Time;durP1;ratioP1;P1;durP2;ratioP2;P2;SDS_P1;SDS_P2;PMS_P1;PMS_P2;Temp;Humidity;BMP_temperature;BMP_pressure;BME280_temperature;BME280_humidity;BME280_pressure;Samples;Min_cycle;Max_cycle;Signal;HPM_P1;HPM_P2
2022/04/22 00:00:15;;;;;;;11.93;6.00;;;17.00;48.30;;;;;;4915331;29;20204;-96
2022/04/22 00:02:42;;;;;;;13.30;6.10;;;17.00;48.40;;;;;;4914792;29;20208;-94
2022/04/22 00:05:09;;;;;;;11.07;5.50;;;17.00;48.30;;;;;;4914885;29;20311;-90
2022/04/22 00:07:38;;;;;;;14.53;5.87;;;17.00;48.20;;;;;;4915315;29;20999;-94
2022/04/22 00:10:25;;;;;;;19.10;6.70;;;17.00;48.40;;;;;;4924316;29;20312;-96
2022/04/22 00:12:59;;;;;;;12.67;6.10;;;17.00;48.60;;;;;;4923042;29;20211;-95
2022/04/22 00:15:28;;;;;;;8.37;5.23;;;17.00;48.70;;;;;;4916236;29;20243;-91
2022/04/22 00:17:55;;;;;;;12.07;5.83;;;17.00;48.70;;;;;;4916725;29;20206;-95
2022/04/22 00:20:22;;;;;;;9.13;5.30;;;17.00;48.60;;;;;;4916378;29;20716;-92
2022/04/22 00:22:51;;;;;;;10.67;5.40;;;17.00;48.60;;;;;;4916781;29;20216;-94
2022/04/22 00:25:21;;;;;;;11.40;5.90;;;17.00;48.80;;;;;;4916256;29;20216;-94
2022/04/22 00:27:48;;;;;;;11.03;5.57;;;17.00;48.90;;;;;;4914404;29;20243;-92
2022/04/22 00:30:16;;;;;;;12.93;5.97;;;17.00;49.40;;;;;;4914093;29;20751;-91
2022/04/22 00:32:43;;;;;;;13.23;5.50;;;17.00;49.30;;;;;;4917769;29;20668;-95
2022/04/22 00:35:10;;;;;;;11.57;5.50;;;17.00;48.90;;;;;;4920081;29;20233;-96
2022/04/22 00:37:40;;;;;;;15.87;7.13;;;17.00;48.90;;;;;;4913957;29;20213;-94
2022/04/22 00:40:11;;;;;;;12.00;5.40;;;17.00;49.00;;;;;;4911290;29;20219;-94
2022/04/22 00:42:38;;;;;;;7.67;4.63;;;17.00;49.20;;;;;;4914678;29;20216;-94
2022/04/22 00:45:08;;;;;;;8.70;4.97;;;17.00;49.10;;;;;;4916422;29;20211;-95
2022/04/22 00:47:37;;;;;;;15.80;6.13;;;17.00;48.80;;;;;;4916160;29;20211;-95
2022/04/22 00:50:05;;;;;;;13.70;5.93;;;17.00;49.30;;;;;;4916472;29;20217;-92
2022/04/22 00:52:38;;;;;;;13.13;5.47;;;16.90;49.10;;;;;;4915797;29;20826;-95
2022/04/22 00:55:08;;;;;;;9.23;4.93;;;17.00;49.50;;;;;;4915780;29;20234;-96
2022/04/22 00:57:37;;;;;;;9.97;4.77;;;16.90;48.90;;;;;;4913435;29;20646;-94
2022/04/22 01:00:24;;;;;;;12.03;5.70;;;16.90;49.20;;;;;;4915735;29;20206;-93
2022/04/22 01:02:53;;;;;;;9.17;5.13;;;16.90;49.60;;;;;;4918630;29;20709;-94
2022/04/22 01:10:52;;;;;;;15.27;6.47;;;16.90;49.00;;;;;;4903147;29;20222;-95
2022/04/22 01:13:21;;;;;;;11.57;5.00;;;16.90;49.10;;;;;;4907287;29;20240;-96
2022/04/22 01:15:49;;;;;;;17.23;7.07;;;16.90;48.90;;;;;;4901195;29;20240;-95
2022/04/22 01:18:22;;;;;;;10.13;5.47;;;16.90;49.70;;;;;;4914199;29;20575;-95
2022/04/22 01:20:49;;;;;;;11.23;5.27;;;16.90;49.20;;;;;;4912547;29;20227;-93
2022/04/22 01:23:22;;;;;;;11.17;5.90;;;16.90;49.00;;;;;;4919898;29;20259;-96
2022/04/22 01:26:03;;;;;;;12.40;5.67;;;16.90;49.30;;;;;;4909227;29;20251;-93
2022/04/22 01:28:32;;;;;;;11.57;6.40;;;16.80;49.40;;;;;;4905556;29;20221;-93
2022/04/22 01:31:04;;;;;;;12.13;5.43;;;16.80;49.40;;;;;;4911612;29;20730;-92
2022/04/22 01:33:32;;;;;;;8.93;4.70;;;16.80;49.20;;;;;;4892246;29;20249;-95
2022/04/22 01:36:08;;;;;;;16.23;7.03;;;16.70;49.10;;;;;;4917116;29;20221;-95
2022/04/22 01:38:38;;;;;;;10.00;5.27;;;16.70;49.40;;;;;;4908943;29;20204;-94
2022/04/22 01:41:05;;;;;;;14.10;5.33;;;16.70;49.20;;;;;;4912520;29;20264;-93
2022/04/22 01:43:34;;;;;;;12.33;5.43;;;16.70;49.20;;;;;;4916035;29;20211;-94
2022/04/22 01:46:06;;;;;;;13.27;5.90;;;16.60;49.10;;;;;;4918144;29;20212;-93
2022/04/22 01:48:35;;;;;;;14.03;5.70;;;16.60;49.40;;;;;;4913871;29;20208;-93
2022/04/22 01:51:04;;;;;;;12.33;5.93;;;16.60;49.30;;;;;;4917573;29;20654;-93
2022/04/22 01:53:31;;;;;;;12.40;5.60;;;16.50;49.20;;;;;;4926407;29;20324;-94
2022/04/22 01:56:01;;;;;;;12.13;6.17;;;16.50;49.30;;;;;;4933297;29;20239;-95
2022/04/22 01:58:28;;;;;;;13.93;5.80;;;16.50;49.50;;;;;;4914678;29;20222;-95
2022/04/22 02:00:55;;;;;;;11.70;6.00;;;16.40;49.50;;;;;;4910818;29;20262;-95
2022/04/22 02:03:27;;;;;;;14.33;6.37;;;16.40;49.40;;;;;;4913637;29;20332;-95
2022/04/22 02:05:54;;;;;;;9.97;5.00;;;16.40;49.80;;;;;;4915545;29;20221;-95
2022/04/22 02:08:22;;;;;;;16.63;6.13;;;16.30;49.60;;;;;;4914517;29;20216;-96
2022/04/22 02:10:52;;;;;;;16.07;6.70;;;16.20;49.70;;;;;;4901637;29;20753;-93
2022/04/22 02:13:36;;;;;;;13.73;6.17;;;16.20;49.60;;;;;;4922059;29;20212;-95
2022/04/22 02:16:05;;;;;;;8.50;4.60;;;16.20;49.90;;;;;;4919668;29;20229;-96
2022/04/22 02:18:36;;;;;;;16.83;7.37;;;16.10;49.70;;;;;;4908689;29;20218;-95
2022/04/22 02:21:07;;;;;;;10.57;5.43;;;16.20;49.90;;;;;;4916009;29;20252;-94
2022/04/22 02:23:34;;;;;;;7.20;4.77;;;16.10;50.00;;;;;;4910859;29;20726;-93
2022/04/22 02:26:05;;;;;;;10.57;5.80;;;16.10;50.30;;;;;;4912766;29;20211;-93
2022/04/22 02:28:33;;;;;;;12.33;6.50;;;16.00;50.20;;;;;;4892263;29;20204;-94
2022/04/22 02:31:01;;;;;;;9.80;5.40;;;16.00;50.30;;;;;;4901570;29;20291;-93
2022/04/22 02:33:31;;;;;;;7.77;4.77;;;16.00;50.20;;;;;;4899379;29;20289;-94
2022/04/22 02:35:59;;;;;;;14.93;7.07;;;15.90;50.20;;;;;;4900902;29;20742;-93
2022/04/22 02:38:28;;;;;;;13.60;6.27;;;15.90;50.30;;;;;;4916618;29;20229;-92
2022/04/22 02:46:27;;;;;;;17.30;7.30;;;15.80;51.00;;;;;;4915729;29;20208;-93
2022/04/22 02:48:57;;;;;;;15.43;6.70;;;15.70;50.90;;;;;;4916194;29;20209;-95
2022/04/22 02:51:24;;;;;;;10.40;6.27;;;15.70;51.10;;;;;;4917303;29;20211;-94
2022/04/22 02:53:54;;;;;;;16.40;7.33;;;15.60;51.00;;;;;;4917791;29;20224;-94
2022/04/22 02:56:23;;;;;;;13.43;6.27;;;15.60;51.40;;;;;;4917459;29;20270;-93
2022/04/22 02:58:57;;;;;;;15.90;7.63;;;15.50;51.00;;;;;;4917308;29;20201;-93
2022/04/22 03:01:25;;;;;;;11.30;5.77;;;15.50;51.30;;;;;;4916929;29;20200;-95
2022/04/22 03:03:58;;;;;;;17.10;7.30;;;15.40;51.10;;;;;;4917171;29;20278;-95
2022/04/22 03:06:26;;;;;;;16.37;7.17;;;15.40;51.30;;;;;;4923564;29;20200;-94
2022/04/22 03:08:53;;;;;;;12.47;6.60;;;15.40;51.40;;;;;;4935181;29;20219;-94
2022/04/22 03:11:21;;;;;;;12.43;6.47;;;15.30;51.70;;;;;;4914156;29;20206;-94
2022/04/22 03:13:52;;;;;;;12.17;6.57;;;15.30;51.60;;;;;;4914805;29;20271;-94
2022/04/22 03:16:24;;;;;;;11.77;6.87;;;15.20;51.80;;;;;;4918325;29;20774;-94
2022/04/22 03:18:53;;;;;;;11.53;6.30;;;15.20;51.80;;;;;;4916293;29;20217;-93
2022/04/22 03:21:25;;;;;;;15.43;7.23;;;15.10;51.70;;;;;;4917589;29;20224;-96
2022/04/22 03:23:56;;;;;;;13.30;7.47;;;15.10;51.80;;;;;;4918405;29;20685;-95
2022/04/22 03:26:25;;;;;;;13.20;6.73;;;15.10;51.80;;;;;;4917497;29;20210;-94
2022/04/22 03:28:55;;;;;;;11.40;6.87;;;15.10;51.80;;;;;;4899256;29;20233;-92
2022/04/22 03:31:22;;;;;;;13.90;7.07;;;15.00;52.20;;;;;;4913996;29;20273;-94
2022/04/22 03:33:49;;;;;;;13.33;7.00;;;15.00;52.10;;;;;;4917968;29;20266;-93
2022/04/22 03:36:17;;;;;;;11.17;7.27;;;14.90;52.50;;;;;;4916510;29;20252;-94
2022/04/22 03:38:46;;;;;;;10.47;6.83;;;14.90;52.40;;;;;;4918078;29;20212;-93
2022/04/22 03:41:19;;;;;;;11.90;6.77;;;14.80;52.70;;;;;;4905551;29;20217;-94
2022/04/22 03:43:48;;;;;;;16.13;7.83;;;14.90;52.90;;;;;;4911209;29;20216;-94
2022/04/22 03:46:33;;;;;;;15.17;7.67;;;14.80;52.80;;;;;;4902224;29;20220;-94
2022/04/22 03:49:01;;;;;;;11.63;6.70;;;14.80;53.00;;;;;;4904369;29;20213;-95
2022/04/22 03:51:32;;;;;;;15.63;7.73;;;14.70;53.00;;;;;;4917876;29;20670;-91
2022/04/22 03:54:01;;;;;;;14.00;7.53;;;14.70;53.60;;;;;;4917847;29;20214;-95
2022/04/22 03:59:17;;;;;;;18.10;9.37;;;14.60;53.60;;;;;;4913837;29;20208;-94
2022/04/22 04:01:50;;;;;;;11.40;7.43;;;14.60;54.00;;;;;;4918508;29;20224;-94
2022/04/22 04:04:19;;;;;;;12.53;7.40;;;14.60;54.20;;;;;;4917685;29;20971;-93
2022/04/22 04:06:47;;;;;;;15.63;8.53;;;14.50;53.90;;;;;;4901929;29;20226;-95
2022/04/22 04:17:38;;;;;;;17.53;9.30;;;14.40;54.90;;;;;;4925582;29;20317;-95
2022/04/22 04:25:36;;;;;;;14.63;8.50;;;14.30;55.20;;;;;;4915039;29;20232;-93
2022/04/22 04:28:10;;;;;;;13.40;8.57;;;14.20;54.90;;;;;;4915804;29;20209;-95
2022/04/22 04:30:38;;;;;;;15.07;8.00;;;14.20;55.30;;;;;;4914503;29;20234;-96
2022/04/22 04:33:08;;;;;;;12.43;8.23;;;14.20;55.10;;;;;;4915164;29;20638;-95
2022/04/22 04:35:37;;;;;;;15.23;9.17;;;14.10;55.50;;;;;;4914232;29;20233;-93
2022/04/22 04:38:04;;;;;;;16.37;8.77;;;14.20;55.20;;;;;;4914140;29;20214;-93
2022/04/22 04:40:32;;;;;;;16.40;9.03;;;14.10;55.10;;;;;;4913455;29;20220;-93
2022/04/22 04:43:00;;;;;;;13.77;8.73;;;14.10;55.00;;;;;;4911550;29;20207;-95
2022/04/22 04:45:32;;;;;;;16.93;9.20;;;14.10;55.30;;;;;;4914462;29;20224;-92
2022/04/22 04:48:03;;;;;;;18.23;9.60;;;14.10;55.30;;;;;;4914793;29;20236;-92
2022/04/22 04:50:36;;;;;;;16.97;9.47;;;14.10;55.80;;;;;;4914065;29;20708;-92
2022/04/22 04:53:03;;;;;;;19.53;9.67;;;14.10;56.40;;;;;;4915417;29;20267;-94
2022/04/22 04:55:30;;;;;;;19.93;10.33;;;14.10;55.80;;;;;;4916158;29;20689;-93
2022/04/22 04:57:57;;;;;;;16.53;10.13;;;14.00;55.80;;;;;;4928863;29;20213;-93
2022/04/22 05:00:25;;;;;;;20.10;9.60;;;14.00;55.80;;;;;;4933377;29;20295;-92
2022/04/22 05:02:56;;;;;;;22.03;10.10;;;14.00;56.00;;;;;;4925530;29;20212;-92
2022/04/22 05:05:23;;;;;;;17.67;9.50;;;14.00;55.90;;;;;;4936879;29;20202;-94
2022/04/22 05:07:55;;;;;;;14.43;7.90;;;14.00;56.00;;;;;;4928759;29;20251;-93
2022/04/22 05:10:22;;;;;;;18.60;9.47;;;14.00;56.10;;;;;;4931094;29;20239;-95
2022/04/22 05:12:50;;;;;;;16.80;9.50;;;13.90;56.20;;;;;;4926371;29;20211;-93
2022/04/22 05:15:19;;;;;;;16.27;9.27;;;13.90;56.20;;;;;;4925659;29;20205;-93
2022/04/22 05:17:48;;;;;;;19.07;10.30;;;13.90;56.30;;;;;;4923050;29;20205;-93
2022/04/22 05:20:19;;;;;;;16.53;9.63;;;13.90;56.50;;;;;;4927404;29;20598;-94
2022/04/22 05:22:47;;;;;;;15.87;8.63;;;14.00;56.90;;;;;;4939061;29;20251;-93
2022/04/22 05:25:22;;;;;;;16.80;9.20;;;13.90;56.70;;;;;;4927990;29;20197;-91
2022/04/22 05:27:50;;;;;;;14.87;9.00;;;13.90;57.10;;;;;;4930510;29;20208;-91
2022/04/22 05:33:04;;;;;;;19.07;9.93;;;13.90;56.80;;;;;;4919148;29;20200;-96
2022/04/22 05:35:37;;;;;;;13.67;8.60;;;13.90;57.00;;;;;;4928055;29;20626;-93
2022/04/22 05:38:06;;;;;;;18.87;10.10;;;13.90;57.50;;;;;;4924418;29;20306;-92
2022/04/22 05:40:36;;;;;;;17.50;10.20;;;13.90;57.50;;;;;;4919618;29;20215;-93
2022/04/22 05:43:05;;;;;;;18.07;9.43;;;13.90;57.70;;;;;;4924061;28;20207;-92
2022/04/22 05:45:33;;;;;;;19.57;9.90;;;13.90;57.50;;;;;;4924746;29;20200;-94
2022/04/22 05:48:00;;;;;;;22.27;11.10;;;13.80;57.40;;;;;;4923390;29;20230;-91
2022/04/22 05:50:31;;;;;;;16.57;9.77;;;13.90;57.70;;;;;;4931696;29;20224;-91
2022/04/22 05:53:00;;;;;;;18.07;10.27;;;13.80;57.80;;;;;;4921758;29;20281;-93
2022/04/22 05:55:29;;;;;;;15.67;9.60;;;13.90;58.30;;;;;;4921692;29;20661;-93
2022/04/22 05:57:59;;;;;;;16.67;9.47;;;13.90;58.40;;;;;;4916193;29;20654;-93
2022/04/22 06:00:30;;;;;;;18.57;11.07;;;13.90;58.40;;;;;;4913556;29;20197;-90
2022/04/22 06:02:57;;;;;;;19.77;10.03;;;13.90;58.70;;;;;;4915835;29;20214;-92
2022/04/22 06:05:25;;;;;;;17.80;9.50;;;13.90;58.40;;;;;;4915692;29;20206;-91
2022/04/22 06:10:54;;;;;;;25.17;10.97;;;13.90;58.90;;;;;;4875589;29;20252;-91
2022/04/22 06:13:23;;;;;;;19.33;9.57;;;14.00;58.70;;;;;;4892523;29;20691;-90
2022/04/22 06:15:49;;;;;;;16.17;9.63;;;14.00;58.80;;;;;;4897338;29;20289;-88
2022/04/22 06:18:17;;;;;;;16.70;9.73;;;14.00;58.70;;;;;;4915097;29;20277;-91
2022/04/22 06:20:44;;;;;;;17.60;10.13;;;14.10;58.70;;;;;;4916878;29;20589;-91
2022/04/22 06:23:11;;;;;;;17.13;9.90;;;14.10;59.10;;;;;;4917643;29;20204;-90
2022/04/22 06:25:40;;;;;;;16.20;10.37;;;14.20;59.30;;;;;;4917082;29;20642;-91
2022/04/22 06:28:08;;;;;;;26.67;11.63;;;14.20;59.20;;;;;;4914880;29;20217;-93
2022/04/22 06:30:38;;;;;;;16.30;10.77;;;14.20;59.20;;;;;;4911871;29;20272;-89
2022/04/22 06:33:06;;;;;;;19.37;10.77;;;14.30;59.70;;;;;;4911276;29;20201;-91
2022/04/22 06:35:34;;;;;;;16.93;10.47;;;14.30;59.20;;;;;;4914927;29;20726;-90
2022/04/22 06:38:02;;;;;;;17.97;10.67;;;14.40;59.70;;;;;;4900215;29;20992;-90
2022/04/22 06:46:03;;;;;;;19.63;11.13;;;14.50;59.40;;;;;;4906790;29;20235;-90
2022/04/22 06:48:33;;;;;;;16.10;9.83;;;14.60;59.60;;;;;;4913833;29;20295;-87
2022/04/22 06:51:02;;;;;;;19.80;11.03;;;14.60;59.30;;;;;;4915017;29;20261;-89
2022/04/22 06:53:32;;;;;;;15.77;10.00;;;14.70;59.60;;;;;;4921887;29;20233;-87
2022/04/22 06:56:01;;;;;;;17.90;10.53;;;14.70;60.10;;;;;;4914888;29;20240;-90
2022/04/22 06:58:32;;;;;;;18.40;11.10;;;14.70;59.40;;;;;;4914236;29;20237;-90
2022/04/22 07:01:01;;;;;;;21.40;11.93;;;14.70;60.00;;;;;;4909019;29;20302;-89
2022/04/22 07:03:28;;;;;;;18.07;10.40;;;14.80;59.70;;;;;;4904642;29;20212;-87
2022/04/22 07:05:57;;;;;;;23.40;12.50;;;14.80;59.30;;;;;;4911312;29;20785;-91
2022/04/22 07:08:24;;;;;;;17.23;10.07;;;14.80;59.50;;;;;;4914873;29;20625;-91
2022/04/22 07:10:53;;;;;;;19.20;11.33;;;14.90;59.20;;;;;;4913835;29;20209;-91
2022/04/22 07:13:21;;;;;;;28.40;13.77;;;14.90;59.60;;;;;;4913770;29;20265;-90
2022/04/22 07:15:49;;;;;;;17.37;10.67;;;15.00;59.30;;;;;;4911827;29;20250;-92
2022/04/22 07:18:19;;;;;;;16.90;10.47;;;15.10;59.40;;;;;;4914696;29;20377;-90
2022/04/22 07:20:46;;;;;;;26.17;12.77;;;15.10;59.50;;;;;;4895155;29;20286;-89
2022/04/22 07:23:14;;;;;;;18.80;11.40;;;15.20;59.40;;;;;;4906755;29;20242;-89
2022/04/22 07:25:44;;;;;;;16.00;10.40;;;15.20;59.50;;;;;;4914449;29;20202;-89
2022/04/22 07:48:58;;;;;;;25.67;12.90;;;15.70;58.70;;;;;;4693608;30;20319;-90
2022/04/22 07:51:29;;;;;;;15.63;10.77;;;15.80;58.60;;;;;;4692097;30;20223;-90
2022/04/22 07:53:56;;;;;;;28.50;13.87;;;15.90;59.20;;;;;;4741623;30;20237;-89
2022/04/22 07:56:25;;;;;;;20.47;11.60;;;15.90;58.60;;;;;;4863263;29;20694;-88
2022/04/22 07:58:53;;;;;;;18.63;11.33;;;16.00;58.30;;;;;;4909257;29;20215;-91
2022/04/22 08:01:20;;;;;;;21.27;11.10;;;16.10;58.40;;;;;;4910077;29;20677;-89
2022/04/22 08:03:47;;;;;;;18.63;11.47;;;16.10;58.20;;;;;;4910009;29;20231;-89
2022/04/22 08:06:15;;;;;;;21.23;11.90;;;16.20;58.30;;;;;;4912908;29;20692;-91
2022/04/22 08:08:43;;;;;;;17.23;10.37;;;16.20;58.20;;;;;;4913018;29;20224;-90
2022/04/22 08:11:10;;;;;;;19.90;11.77;;;16.30;57.90;;;;;;4912845;29;20315;-87
2022/04/22 08:13:37;;;;;;;29.10;13.60;;;16.40;58.00;;;;;;4911812;29;20292;-87
2022/04/22 08:16:04;;;;;;;26.83;12.77;;;16.50;57.90;;;;;;4910101;29;20296;-90
2022/04/22 08:18:59;;;;;;;33.93;13.87;;;16.50;57.90;;;;;;4902077;29;20236;-87
2022/04/22 08:21:32;;;;;;;17.07;11.00;;;16.60;57.80;;;;;;4911568;29;20758;-89
2022/04/22 08:23:59;;;;;;;21.43;12.30;;;16.60;57.60;;;;;;4912509;29;20205;-87
2022/04/22 08:26:28;;;;;;;19.10;11.13;;;16.70;57.30;;;;;;4913078;29;20781;-89
2022/04/22 08:28:55;;;;;;;18.53;11.63;;;16.70;57.10;;;;;;4913771;29;20232;-89
2022/04/22 08:31:22;;;;;;;15.10;10.10;;;16.70;57.10;;;;;;4919698;29;20269;-93
2022/04/22 08:33:51;;;;;;;18.87;11.33;;;16.80;57.20;;;;;;4931792;29;20552;-91
2022/04/22 08:36:20;;;;;;;15.63;10.80;;;16.80;57.10;;;;;;4924056;29;20237;-94
2022/04/22 08:38:50;;;;;;;16.83;11.33;;;16.90;57.20;;;;;;4916124;29;20669;-93
2022/04/22 08:41:21;;;;;;;16.13;11.30;;;17.00;57.40;;;;;;4914127;29;20652;-91
2022/04/22 08:43:50;;;;;;;18.40;11.17;;;17.10;57.40;;;;;;4913168;29;20674;-92
2022/04/22 08:51:50;;;;;;;26.77;13.77;;;17.40;56.60;;;;;;4903067;29;20213;-89
2022/04/22 08:54:24;;;;;;;27.97;13.83;;;17.40;56.20;;;;;;4896513;29;20858;-91
2022/04/22 08:56:52;;;;;;;16.13;11.47;;;17.50;56.00;;;;;;4900974;29;20347;-90
2022/04/22 08:59:20;;;;;;;17.30;11.80;;;17.50;55.80;;;;;;4917722;29;20230;-91
2022/04/22 09:01:48;;;;;;;27.37;14.60;;;17.60;55.90;;;;;;4907757;29;20212;-93
2022/04/22 09:04:17;;;;;;;22.70;12.33;;;17.60;55.60;;;;;;4898626;29;20203;-93
2022/04/22 09:06:47;;;;;;;26.47;13.57;;;17.70;54.90;;;;;;4909664;29;20620;-92
2022/04/22 09:09:14;;;;;;;23.20;12.03;;;17.70;54.80;;;;;;4910665;29;20298;-90
2022/04/22 09:11:55;;;;;;;21.37;11.60;;;17.80;54.60;;;;;;4904684;29;20359;-91
2022/04/22 09:14:25;;;;;;;22.70;12.43;;;17.90;54.10;;;;;;4902581;29;20283;-88
2022/04/22 09:16:54;;;;;;;18.27;11.70;;;18.00;54.20;;;;;;4903063;29;20232;-90
2022/04/22 09:19:22;;;;;;;20.20;12.17;;;18.10;54.10;;;;;;4901975;29;20310;-90
2022/04/22 09:21:58;;;;;;;18.27;12.20;;;18.20;53.90;;;;;;4925067;29;20216;-89
2022/04/22 09:24:27;;;;;;;21.93;13.57;;;18.30;53.80;;;;;;4914009;29;20211;-91
2022/04/22 09:27:08;;;;;;;21.97;13.90;;;18.30;53.80;;;;;;4913729;29;20703;-91
2022/04/22 09:29:57;;;;;;;19.43;13.17;;;18.40;53.60;;;;;;4916751;29;20244;-90
2022/04/22 09:32:31;;;;;;;36.60;18.23;;;18.40;53.90;;;;;;4913306;29;21044;-93
2022/04/22 09:35:07;;;;;;;18.20;12.70;;;18.40;53.70;;;;;;4932767;29;20656;-94
2022/04/22 09:43:34;;;;;;;25.83;14.93;;;18.40;53.30;;;;;;4927912;29;20296;-92
2022/04/22 09:46:05;;;;;;;23.30;14.53;;;18.30;53.50;;;;;;4923887;29;21000;-91
2022/04/22 09:48:44;;;;;;;25.33;14.47;;;18.30;53.80;;;;;;4911064;29;20315;-92
2022/04/22 09:51:22;;;;;;;20.47;12.80;;;18.20;54.00;;;;;;4917101;29;20723;-92
2022/04/22 09:54:01;;;;;;;19.47;13.57;;;18.20;54.20;;;;;;4921204;29;20222;-90
2022/04/22 09:56:29;;;;;;;24.40;13.77;;;18.20;54.20;;;;;;4917335;29;20226;-90
2022/04/22 09:58:58;;;;;;;18.70;13.03;;;18.10;54.10;;;;;;4911596;29;20239;-92
2022/04/22 10:01:26;;;;;;;20.80;13.43;;;18.10;54.10;;;;;;4911173;29;20297;-90
2022/04/22 10:04:32;;;;;;;20.83;12.97;;;18.10;54.30;;;;;;4920685;29;20269;-91
2022/04/22 10:07:03;;;;;;;24.30;14.47;;;18.10;54.80;;;;;;4915160;29;20223;-92
2022/04/22 10:09:36;;;;;;;19.37;12.67;;;18.20;54.70;;;;;;4921501;29;20204;-91
2022/04/22 10:12:10;;;;;;;27.80;16.30;;;18.10;54.30;;;;;;4922054;29;20201;-92
2022/04/22 10:14:44;;;;;;;26.43;15.17;;;18.10;54.20;;;;;;4917330;29;20798;-88
2022/04/22 10:17:11;;;;;;;25.63;15.27;;;18.20;54.30;;;;;;4924801;29;20711;-90
2022/04/22 10:19:44;;;;;;;25.23;15.43;;;18.20;53.80;;;;;;4921969;29;20224;-91
2022/04/22 10:22:14;;;;;;;22.57;14.97;;;18.20;53.60;;;;;;4924430;29;20215;-94
2022/04/22 10:24:45;;;;;;;18.53;13.60;;;18.20;53.40;;;;;;4913759;29;20215;-89
2022/04/22 10:27:15;;;;;;;19.13;13.70;;;18.20;53.50;;;;;;4907690;29;20216;-90
2022/04/22 10:29:46;;;;;;;25.57;14.73;;;18.30;53.40;;;;;;4913057;29;20959;-90
2022/04/22 10:32:17;;;;;;;18.17;13.83;;;18.30;53.40;;;;;;4912798;29;20369;-89
2022/04/22 10:34:45;;;;;;;20.90;13.60;;;18.40;53.30;;;;;;4911890;29;20216;-90
2022/04/22 10:37:26;;;;;;;22.80;15.37;;;18.50;53.40;;;;;;4911780;29;20240;-90
2022/04/22 10:39:55;;;;;;;18.87;13.70;;;18.60;53.60;;;;;;4901651;29;20209;-87
2022/04/22 10:42:31;;;;;;;24.37;15.63;;;18.70;53.70;;;;;;4913012;29;20217;-91
2022/04/22 10:48:32;;;;;;;21.97;13.83;;;19.10;53.20;;;;;;4911285;29;20248;-91
2022/04/22 10:51:02;;;;;;;30.13;15.73;;;19.30;52.90;;;;;;4902596;29;20224;-89
2022/04/22 10:53:37;;;;;;;18.13;12.93;;;19.40;52.40;;;;;;4912929;29;20268;-92
2022/04/22 10:56:33;;;;;;;24.83;15.13;;;19.50;52.10;;;;;;4912900;29;20236;-91
2022/04/22 10:59:27;;;;;;;16.63;13.00;;;19.70;50.90;;;;;;4908657;29;20239;-88
2022/04/22 11:01:58;;;;;;;17.43;12.77;;;19.90;51.00;;;;;;4911274;29;20280;-92
2022/04/22 11:04:28;;;;;;;21.33;12.30;;;20.00;50.70;;;;;;4911689;29;20209;-88
2022/04/22 11:07:00;;;;;;;21.20;12.67;;;20.10;50.70;;;;;;4910786;29;20374;-88
2022/04/22 11:09:33;;;;;;;25.00;15.00;;;20.20;50.40;;;;;;4907314;29;20227;-89
2022/04/22 11:12:01;;;;;;;24.80;14.10;;;20.20;50.00;;;;;;4912585;29;20216;-89
2022/04/22 11:14:32;;;;;;;19.80;12.77;;;20.20;50.30;;;;;;4912574;29;20239;-88
2022/04/22 11:17:44;;;;;;;21.93;13.37;;;20.10;50.00;;;;;;4914363;29;20209;-91
2022/04/22 11:20:17;;;;;;;22.87;12.33;;;20.10;49.90;;;;;;4902448;29;20239;-92
2022/04/22 11:22:58;;;;;;;20.60;11.90;;;20.00;50.20;;;;;;4920615;29;20201;-90
2022/04/22 11:25:31;;;;;;;29.00;15.57;;;20.00;50.00;;;;;;4914340;29;20213;-92
2022/04/22 11:27:59;;;;;;;22.40;12.77;;;19.90;50.20;;;;;;4913306;29;20960;-88
2022/04/22 11:30:27;;;;;;;17.77;11.90;;;19.90;50.50;;;;;;4909622;29;20209;-92
2022/04/22 11:33:03;;;;;;;17.70;11.70;;;19.90;50.60;;;;;;4910061;29;20232;-90
2022/04/22 11:35:35;;;;;;;20.20;12.60;;;19.90;50.50;;;;;;4911140;29;20217;-91
2022/04/22 11:38:05;;;;;;;16.97;10.57;;;19.80;50.50;;;;;;4912416;29;20224;-93
2022/04/22 11:40:42;;;;;;;15.70;9.43;;;19.90;50.40;;;;;;4910862;29;20213;-91
2022/04/22 11:43:14;;;;;;;17.87;9.07;;;19.90;50.00;;;;;;4914054;29;20216;-93
2022/04/22 11:45:43;;;;;;;14.73;9.13;;;19.80;49.80;;;;;;4917612;29;20276;-94
2022/04/22 11:48:14;;;;;;;15.57;9.63;;;19.80;49.70;;;;;;4928155;29;20208;-92
2022/04/22 11:50:45;;;;;;;19.57;10.67;;;19.80;49.40;;;;;;4914960;29;20968;-92
2022/04/22 11:53:15;;;;;;;11.53;8.83;;;19.80;48.80;;;;;;4909853;29;20221;-92
2022/04/22 11:55:43;;;;;;;12.33;8.57;;;19.80;48.80;;;;;;4913423;29;20219;-93
2022/04/22 11:58:10;;;;;;;13.57;8.00;;;19.80;48.70;;;;;;4911416;29;20335;-92
2022/04/22 12:06:15;;;;;;;19.03;11.50;;;19.70;49.60;;;;;;4908895;29;20211;-91
2022/04/22 12:08:55;;;;;;;21.63;12.00;;;19.70;49.90;;;;;;4903204;29;20239;-93
2022/04/22 12:11:23;;;;;;;15.93;10.67;;;19.70;50.00;;;;;;4904543;29;20213;-91
2022/04/22 12:13:52;;;;;;;18.60;11.63;;;19.70;50.10;;;;;;4905919;29;20209;-91
2022/04/22 12:16:19;;;;;;;17.13;10.87;;;19.70;50.10;;;;;;4899559;29;20248;-91
2022/04/22 12:18:49;;;;;;;19.27;10.90;;;19.60;50.00;;;;;;4910492;29;20244;-89
2022/04/22 12:21:17;;;;;;;15.30;10.00;;;19.60;50.00;;;;;;4924463;29;20219;-90
2022/04/22 12:23:45;;;;;;;15.93;10.27;;;19.50;50.10;;;;;;4914336;29;20219;-90
2022/04/22 12:26:18;;;;;;;18.90;10.33;;;19.50;50.10;;;;;;4913659;29;20221;-90
2022/04/22 12:29:09;;;;;;;17.50;9.87;;;19.40;50.30;;;;;;4912163;29;20215;-89
2022/04/22 12:31:39;;;;;;;16.60;9.97;;;19.40;50.50;;;;;;4905891;29;20229;-89
2022/04/22 12:34:09;;;;;;;12.97;8.93;;;19.30;50.60;;;;;;4909094;29;20340;-89
2022/04/22 12:36:38;;;;;;;16.93;10.70;;;19.30;50.90;;;;;;4905028;29;20299;-89
2022/04/22 12:39:05;;;;;;;15.47;10.33;;;19.30;51.10;;;;;;4915025;29;20865;-89
2022/04/22 12:41:43;;;;;;;15.63;9.93;;;19.20;51.20;;;;;;4912496;29;20678;-91
2022/04/22 12:44:15;;;;;;;15.93;10.07;;;19.20;51.30;;;;;;4912340;29;20212;-91
2022/04/22 12:52:23;;;;;;;13.53;9.10;;;19.20;51.90;;;;;;4911870;29;20219;-92
2022/04/22 12:54:51;;;;;;;16.17;9.70;;;19.20;51.80;;;;;;4922953;29;20212;-92
2022/04/22 12:57:20;;;;;;;16.60;9.33;;;19.20;51.90;;;;;;4920723;29;20213;-92
2022/04/22 12:59:49;;;;;;;16.43;9.77;;;19.20;52.00;;;;;;4912939;29;20699;-91
2022/04/22 13:02:18;;;;;;;15.73;9.77;;;19.20;51.40;;;;;;4912063;29;20299;-89
2022/04/22 13:04:55;;;;;;;12.43;9.17;;;19.20;51.30;;;;;;4913212;29;20586;-93
2022/04/22 13:07:24;;;;;;;14.43;9.47;;;19.30;51.50;;;;;;4911001;29;20666;-91
2022/04/22 13:09:51;;;;;;;16.57;11.00;;;19.30;51.40;;;;;;4912156;29;22027;-92
2022/04/22 13:12:18;;;;;;;12.17;9.87;;;19.30;51.10;;;;;;4915664;29;20216;-92
2022/04/22 13:14:46;;;;;;;15.93;10.50;;;19.30;51.20;;;;;;4913131;29;20636;-94
2022/04/22 13:17:21;;;;;;;15.07;9.77;;;19.30;51.00;;;;;;4905288;29;20212;-91
2022/04/22 13:19:49;;;;;;;13.60;9.57;;;19.50;50.80;;;;;;4914623;29;20236;-92
2022/04/22 13:22:18;;;;;;;15.67;9.87;;;19.50;50.60;;;;;;4915224;29;20205;-92
2022/04/22 13:24:45;;;;;;;16.50;10.47;;;19.50;50.50;;;;;;4914666;29;20303;-89
2022/04/22 13:27:14;;;;;;;13.90;9.57;;;19.50;50.30;;;;;;4913040;29;20221;-88
2022/04/22 13:29:41;;;;;;;12.93;9.83;;;19.60;50.10;;;;;;4916177;29;20201;-94
2022/04/22 13:32:10;;;;;;;12.83;10.20;;;19.70;50.20;;;;;;4913181;29;20691;-92
2022/04/22 13:34:37;;;;;;;12.60;9.37;;;19.80;50.20;;;;;;4915831;29;20217;-92
2022/04/22 13:37:04;;;;;;;13.57;10.57;;;19.90;50.00;;;;;;4914857;29;20202;-93
2022/04/22 13:39:35;;;;;;;10.60;9.17;;;19.90;49.70;;;;;;4922795;29;20279;-92
2022/04/22 13:42:04;;;;;;;11.50;8.83;;;20.00;50.00;;;;;;4934221;29;20212;-93
2022/04/22 13:52:47;;;;;;;11.77;9.07;;;20.30;49.40;;;;;;4911473;29;20292;-93
2022/04/22 13:55:16;;;;;;;12.00;8.87;;;20.40;49.30;;;;;;4912995;29;20211;-91
2022/04/22 13:57:43;;;;;;;13.63;9.53;;;20.40;49.10;;;;;;4913966;29;20215;-93
2022/04/22 14:00:12;;;;;;;12.20;9.33;;;20.40;49.00;;;;;;4905754;29;20675;-93
2022/04/22 14:02:41;;;;;;;14.77;10.87;;;20.40;48.70;;;;;;4894021;29;20288;-91
2022/04/22 14:05:10;;;;;;;12.93;9.63;;;20.40;48.50;;;;;;4905108;29;20670;-94
2022/04/22 14:07:44;;;;;;;10.90;9.70;;;20.40;48.80;;;;;;4918578;29;20236;-93
2022/04/22 14:10:11;;;;;;;14.43;10.77;;;20.40;48.70;;;;;;4917691;29;20208;-90
2022/04/22 14:12:39;;;;;;;11.97;9.80;;;20.40;48.80;;;;;;4916180;29;20276;-90
2022/04/22 14:15:07;;;;;;;14.83;10.87;;;20.50;48.60;;;;;;4918884;29;20236;-90
2022/04/22 14:17:38;;;;;;;14.13;10.70;;;20.40;48.80;;;;;;4915548;29;20579;-88
2022/04/22 14:20:05;;;;;;;14.87;10.73;;;20.50;49.20;;;;;;4915734;29;20621;-91
2022/04/22 14:22:32;;;;;;;14.30;9.90;;;20.50;49.30;;;;;;4915419;29;20248;-92